Terminal Aerodrome Forecast
Issued by NWS Pendleton, OR

Home | Current Version | Previous Version | Text Only | Print | Product List | Glossary On
Versions: 1 2 3 4 5 6 7 8 9 10 11 12 13 14 15
000
FTUS46 KPDT 140500
TAFPDT
TAF
KPDT 140534Z 1406/1506 34010KT P6SM -SHRA SCT050 OVC100
      TEMPO 1406/1408 -TSRA BKN060CB
     FM141200 25009KT P6SM BKN120
     FM142100 29012KT P6SM SCT120=

USA.gov is the U.S. government's official web portal to all federal, state and local government web resources and services.